• Join FlightAware (Why Join?)
  • Login
  • US Flag 
12:26AM EST


 

Airport Tracker/Info


-or-


 

Live Flight TrackerFlight Track Log ✈ N137TK ✈ 24-Jan-2014 ✈ KAPF - KAVL

Flight Track Log - Related Links

Times and Time Zones

All times are in EST time to prevent confusion due to time zone crossing. See the N137TK flight status page for this flight to view local times or setup timezone preferences in your user account.

Time Position Orientation Groundspeed Altitude Reporting Facility
EST Latitude Longitude Course Direction KTS MPH feet Rate Location/Type
07:50AM 26.2611 -81.8300 355° North 176 203 6,000  Level Miami Center
07:51AM 26.3089 -81.8322 358° North 171 197 7,800 2,100 Climbing Miami Center
07:52AM 26.3633 -81.8319 360° North 176 203 10,200 2,100 Climbing Miami Center
07:53AM 26.4872 -81.8009 354° North  Level Estimated
07:53AM 26.4156 -81.8319 360° North 176 203 12,100  Level Miami Center
07:54AM 26.5540 -81.8080 355° North  Level FlightAware Approximate
07:54AM 26.4656 -81.8364 355° North 176 203 14,000  Level Miami Center
07:55AM 26.5111 -81.8431 353° North 176 203 15,400 1,500 Climbing Miami Center
07:56AM 26.5611 -81.8450 358° North 176 203 17,000 1,320 Climbing Miami Center
07:57AM 26.6153 -81.8497 356° North 181 208 18,100 1,320 Climbing Miami Center
07:58AM 26.6694 -81.8542 356° North 181 208 19,700 1,500 Climbing Miami Center
07:59AM 26.7194 -81.8542 360° North 181 208 21,100 1,260 Climbing Miami Center
08:00AM 26.7653 -81.8583 355° North 176 203 22,300 1,020 Climbing Miami Center
08:01AM 26.8172 -81.8631 355° North 176 203 23,200 960 Climbing Miami Center
08:02AM 26.8692 -81.8697 353° North 176 203 24,300 900 Climbing Miami Center
08:03AM 26.9236 -81.8697 360° North 176 203 25,000 300 Climbing Miami Center
08:04AM 26.9881 -81.8750 356° North 199 229 25,000  Level Miami Center
08:05AM 27.0650 -81.8806 356° North 243 280 25,000  Level Miami Center
08:06AM 27.1400 -81.8861 356° North 262 302 25,000  Level Miami Center
08:07AM 27.2150 -81.8917 356° North 262 302 25,000  Level Miami Center
08:08AM 27.2814 -81.8994 354° North 270 311 25,000  Level Miami Center
08:09AM 27.3606 -81.9097 353° North 275 316 25,000  Level Miami Center
08:10AM 27.4453 -81.8714 22° Northeast 282 325 25,000  Level Miami Center
08:11AM 27.5239 -81.8328 24° Northeast 298 343 25,000  Level Miami Center
08:12AM 27.6044 -81.7964 22° Northeast 304 350 25,000  Level Miami Center
08:13AM 27.6764 -81.7619 23° Northeast 304 350 25,000  Level Miami Center
08:14AM 27.7572 -81.7233 23° Northeast 304 350 25,000  Level Miami Center
08:15AM 27.8358 -81.6819 25° Northeast 304 350 25,000  Level Miami Center
08:16AM 27.9183 -81.6433 22° Northeast 304 350 25,000  Level Miami Center
08:17AM 27.9969 -81.6019 25° Northeast 304 350 25,000  Level Miami Center
08:18AM 28.0775 -81.5628 23° Northeast 304 350 25,000  Level Miami Center
08:20AM 28.2486 -81.4811 23° Northeast 339 390 25,000  Level Jacksonville Center
08:21AM 28.3378 -81.4375 23° Northeast 328 377 25,000  Level Jacksonville Center
08:22AM 28.4189 -81.3986 23° Northeast 315 362 25,000  Level Jacksonville Center
08:23AM 28.5000 -81.3736 15° North 305 351 25,000  Level Jacksonville Center
08:24AM 28.5811 -81.3536 12° North 299 344 25,000  Level Jacksonville Center
08:25AM 28.6456 -81.3383 12° North 294 338 25,000  Level Jacksonville Center
08:26AM 28.7311 -81.3394 359° North 286 329 25,000  Level Jacksonville Center
08:27AM 28.8044 -81.3525 351° North 270 311 25,000  Level Jacksonville Center
08:28AM 28.8797 -81.3631 353° North 270 311 25,000  Level Jacksonville Center
08:29AM 28.9547 -81.3739 353° North 275 316 25,000  Level Jacksonville Center
08:30AM 29.0281 -81.3800 356° North 275 316 25,000  Level Jacksonville Center
08:31AM 29.1011 -81.3956 349° North 275 316 25,000  Level Jacksonville Center
08:32AM 29.1722 -81.4039 354° North 270 311 25,000  Level Jacksonville Center
08:33AM 29.2433 -81.4169 351° North 264 304 25,000  Level Jacksonville Center
08:34AM 29.3208 -81.4325 350° North 251 289 25,000  Level Jacksonville Center
08:35AM 29.3858 -81.4578 341° North 246 283 25,000  Level Jacksonville Center
08:36AM 29.4383 -81.4906 331° Northwest 231 266 25,000  Level Jacksonville Center
08:37AM 29.4950 -81.5253 332° Northwest 226 260 25,000  Level Jacksonville Center
08:38AM 29.5619 -81.5411 348° North 226 260 25,000  Level Jacksonville Center
08:39AM 29.6331 -81.5544 351° North 241 277 25,000  Level Jacksonville Center
08:40AM 29.7022 -81.5631 354° North 246 283 25,000  Level Jacksonville Center
08:41AM 29.7711 -81.5742 352° North 246 283 25,000  Level Jacksonville Center
08:42AM 29.8403 -81.5853 352° North 251 289 25,000  Level Jacksonville Center
08:43AM 29.9092 -81.5961 352° North 251 289 25,000  Level Jacksonville Center
08:44AM 29.9761 -81.6072 352° North 251 289 25,000  Level Jacksonville Center
08:45AM 30.0450 -81.6183 352° North 251 289 25,000  Level Jacksonville Center
08:46AM 30.1119 -81.6272 353° North 251 289 25,000  Level Jacksonville Center
08:47AM 30.1811 -81.6406 351° North 246 283 25,000  Level Jacksonville Center
08:48AM 30.2500 -81.6517 352° North 246 283 25,000  Level Jacksonville Center
08:49AM 30.3169 -81.6606 353° North 246 283 25,000  Level Jacksonville Center
08:50AM 30.3858 -81.6717 352° North 246 283 25,000  Level Jacksonville Center
08:51AM 30.4550 -81.6828 352° North 246 283 25,000  Level Jacksonville Center
08:52AM 30.5239 -81.6942 352° North 246 283 25,000  Level Jacksonville Center
08:53AM 30.5908 -81.7053 352° North 241 277 25,000  Level Jacksonville Center
08:54AM 30.6578 -81.7189 350° North 241 277 25,000  Level Jacksonville Center
08:55AM 30.7289 -81.7278 354° North 241 277 25,000  Level Jacksonville Center
08:56AM 30.7958 -81.7414 350° North 241 277 25,000  Level Jacksonville Center
08:57AM 30.8586 -81.7528 351° North 249 287 25,000  Level Jacksonville Center
08:58AM 30.9297 -81.7617 354° North 254 292 25,000  Level Jacksonville Center
08:59AM 31.0008 -81.7753 351° North 254 292 25,000  Level Jacksonville Center
09:00AM 31.0697 -81.7867 352° North 254 292 25,000  Level Jacksonville Center
09:01AM 31.1386 -81.7978 352° North 254 292 25,000  Level Jacksonville Center
09:02AM 31.2078 -81.8092 352° North 254 292 25,000  Level Jacksonville Center
09:03AM 31.2747 -81.8206 352° North 254 292 25,000  Level Jacksonville Center
09:04AM 31.3458 -81.8319 352° North 254 292 25,000  Level Jacksonville Center
09:05AM 31.4147 -81.8433 352° North 254 292 25,000  Level Jacksonville Center
09:06AM 31.4922 -81.8572 351° North 254 292 25,000  Level Jacksonville Center
09:07AM 31.5569 -81.8661 353° North 254 292 25,000  Level Jacksonville Center
09:08AM 31.6342 -81.8800 351° North 254 292 25,000  Level Jacksonville Center
09:09AM 31.7053 -81.8914 352° North 254 292 25,000  Level Jacksonville Center
09:10AM 31.7703 -81.9006 353° North 259 298 25,000  Level Jacksonville Center
09:11AM 31.8475 -81.9142 351° North 259 298 25,000  Level Jacksonville Center
09:12AM 31.9164 -81.9258 352° North 254 292 25,000  Level Jacksonville Center
09:13AM 31.9772 -81.9375 351° North 254 292 25,000  Level Jacksonville Center
09:15AM 32.1403 -81.9661 352° North 255 293 25,000  Level Atlanta Center
09:16AM 32.2053 -81.9744 354° North 255 293 25,000  Level Atlanta Center
09:17AM 32.2742 -81.9875 351° North 255 293 25,000  Level Atlanta Center
09:18AM 32.3475 -82.0006 351° North 255 293 25,000  Level Atlanta Center
09:19AM 32.4167 -82.0139 351° North 255 293 25,000  Level Atlanta Center
09:20AM 32.4856 -82.0222 354° North 255 293 25,000 -120 Level Atlanta Center
09:21AM 32.5528 -82.0353 351° North 255 293 24,800 -420 Descending Atlanta Center
09:22AM 32.6239 -82.0461 353° North 255 293 24,200 -600 Descending Atlanta Center
09:23AM 32.6992 -82.0617 350° North 261 300 23,700 -480 Descending Atlanta Center
09:24AM 32.7725 -82.0725 353° North 261 300 23,300 -480 Descending Atlanta Center
09:25AM 32.8414 -82.0831 353° North 256 295 22,800 -600 Descending Atlanta Center
09:26AM 32.9128 -82.0989 349° North 256 295 22,200 -420 Descending Atlanta Center
09:27AM 32.9797 -82.1097 352° North 256 295 22,000 -120 Descending Atlanta Center
09:28AM 33.0508 -82.1231 351° North 256 295 22,000  Level Atlanta Center
09:29AM 33.1114 -82.1317 353° North 244 281 22,000  Level Atlanta Center
09:30AM 33.1700 -82.1378 355° North 229 264 22,000  Level Atlanta Center
09:31AM 33.2392 -82.1536 349° North 229 264 22,000  Level Atlanta Center
09:32AM 33.3019 -82.1647 352° North 229 264 22,000  Level Atlanta Center
09:33AM 33.3647 -82.1733 353° North 229 264 22,000  Level Atlanta Center
09:34AM 33.4297 -82.1869 350° North 229 264 22,000  Level Atlanta Center
09:35AM 33.4967 -82.2003 351° North 229 264 22,000  Level Atlanta Center
09:36AM 33.5658 -82.2164 349° North 236 272 22,000  Level Atlanta Center
09:37AM 33.6200 -82.2203 357° North 230 265 22,000  Level Atlanta Center
09:38AM 33.6975 -82.2336 352° North 241 277 22,000  Level Atlanta Center
09:39AM 33.7644 -82.2447 352° North 241 277 22,000  Level Atlanta Center
09:40AM 33.8333 -82.2558 352° North 250 288 22,000  Level Atlanta Center
09:41AM 33.9108 -82.2742 349° North 264 304 22,000 -300 Level Atlanta Center
09:42AM 33.9778 -82.2828 354° North 254 292 21,400 -780 Descending Atlanta Center
09:43AM 34.0531 -82.2936 353° North 260 299 20,500 -900 Descending Atlanta Center
09:44AM 34.1306 -82.3122 349° North 276 318 19,700 -900 Descending Atlanta Center
09:45AM 34.2081 -82.3283 350° North 276 318 18,700 -720 Descending Atlanta Center
09:46AM 34.2814 -82.3392 353° North 276 318 18,300 -720 Descending Atlanta Center
09:47AM 34.3525 -82.3506 352° North 271 312 17,300 -1,020 Descending Atlanta Center
09:48AM 34.4236 -82.3642 351° North 261 300 16,300 -1,020 Descending Atlanta Center
09:49AM 34.4925 -82.3753 352° North 256 295 15,300 -1,020 Descending Atlanta Center
09:50AM 34.5617 -82.3867 352° North 256 295 14,300 -960 Descending Atlanta Center
09:51AM 34.6306 -82.4031 349° North 256 295 13,400 -900 Descending Atlanta Center
09:52AM 34.6956 -82.4092 356° North 246 283 12,500 -900 Descending Atlanta Center
09:53AM 34.7625 -82.4231 350° North 246 283 11,600 -900 Descending Atlanta Center
09:54AM 34.8253 -82.4344 352° North 241 277 10,700 -900 Descending Atlanta Center
09:55AM 34.8881 -82.4461 351° North 236 272 9,800 -900 Descending Atlanta Center
09:56AM 34.9506 -82.4575 352° North 236 272 9,000 -840 Descending Atlanta Center
09:57AM 35.0133 -82.4689 352° North 231 266 8,200 -840 Descending Atlanta Center
09:59AM 35.1170 -82.4834 355° North  Level FlightAware Approximate
10:06AM 35.4333 -82.5333 348° North  Level FlightAware Approximate
10:07AM 35.4362 -82.5418 348° North  Level Estimated
10:08AM 35.4362 -82.5418 348° North  Level Estimated
10:09AM 35.4362 -82.5418 348° North  Level Estimated
10:10AM 35.4362 -82.5418 348° North  Level Estimated
10:11AM 35.4362 -82.5418 348° North  Level Estimated
10:12AM 35.4362 -82.5418 348° North  Level Estimated
10:13AM 35.4362 -82.5418 348° North  Level Estimated
10:14AM 35.4362 -82.5418 348° North  Level Estimated